createdAt,value
2022-11-29T00:02:18.449Z,6.80
2022-11-29T00:04:46.818Z,6.00
2022-11-29T00:07:14.958Z,7.00
2022-11-29T00:09:43.135Z,6.00
2022-11-29T00:12:14.263Z,7.40
2022-11-29T00:14:44.133Z,6.00
2022-11-29T00:17:12.543Z,6.60
2022-11-29T00:19:40.759Z,6.00
2022-11-29T00:22:08.848Z,6.00
2022-11-29T00:24:37.126Z,6.00
2022-11-29T00:27:06.009Z,6.00
2022-11-29T00:29:34.551Z,9.60
2022-11-29T00:32:04.092Z,8.20
2022-11-29T00:34:32.263Z,7.00
2022-11-29T00:37:00.346Z,9.00
2022-11-29T00:39:28.600Z,4.40
2022-11-29T00:41:56.846Z,6.00
2022-11-29T00:44:24.907Z,7.00
2022-11-29T00:46:53.281Z,6.00
2022-11-29T00:49:22.852Z,1.00
2022-11-29T00:51:51.019Z,1.80
2022-11-29T00:54:19.233Z,6.60
2022-11-29T00:56:47.379Z,6.40
2022-11-29T00:59:15.507Z,6.60
2022-11-29T01:01:43.655Z,9.00
2022-11-29T01:04:11.822Z,12.20
2022-11-29T01:06:41.487Z,7.00
2022-11-29T01:09:09.917Z,8.40
2022-11-29T01:11:38.088Z,7.00
2022-11-29T01:14:06.358Z,6.40
2022-11-29T01:16:34.668Z,9.40
2022-11-29T01:19:02.849Z,9.00
2022-11-29T01:21:31.251Z,8.20
2022-11-29T01:24:01.070Z,8.20
2022-11-29T01:26:29.870Z,7.00
2022-11-29T01:28:58.660Z,7.40
2022-11-29T01:31:28.293Z,7.80
2022-11-29T01:33:57.071Z,4.00
2022-11-29T01:36:25.759Z,6.20
2022-11-29T01:38:54.234Z,9.40
2022-11-29T01:41:24.574Z,3.20
2022-11-29T01:43:56.484Z,0.20
2022-11-29T01:46:26.086Z,6.80
2022-11-29T01:48:58.812Z,6.60
2022-11-29T01:51:28.928Z,4.40
2022-11-29T01:53:57.467Z,9.00
2022-11-29T01:56:27.433Z,8.60
2022-11-29T01:58:55.845Z,6.00
2022-11-29T02:01:24.320Z,9.60
2022-11-29T02:03:52.485Z,5.60
2022-11-29T02:06:20.630Z,10.00
2022-11-29T02:08:48.750Z,9.00
2022-11-29T02:11:30.945Z,7.00
2022-11-29T02:14:05.283Z,8.20
2022-11-29T02:16:39.122Z,3.00
2022-11-29T02:19:19.381Z,6.80
2022-11-29T02:21:50.263Z,8.60
2022-11-29T02:24:45.335Z,8.20
2022-11-29T02:27:22.668Z,5.20
2022-11-29T02:30:05.613Z,8.60
2022-11-29T02:32:48.499Z,6.20
2022-11-29T02:35:25.677Z,3.60
2022-11-29T02:38:08.508Z,6.40
2022-11-29T02:40:52.261Z,6.20
2022-11-29T02:43:50.387Z,7.00
2022-11-29T02:46:33.564Z,4.00
2022-11-29T02:49:05.730Z,3.60
2022-11-29T02:51:40.705Z,6.00
2022-11-29T02:54:13.431Z,6.00
2022-11-29T02:56:46.305Z,7.00
2022-11-29T02:59:18.462Z,6.80
2022-11-29T03:01:52.723Z,6.20
2022-11-29T03:04:27.313Z,7.00
2022-11-29T03:07:03.502Z,4.00
2022-11-29T03:09:37.730Z,6.00
2022-11-29T03:12:12.994Z,4.00
2022-11-29T03:14:46.038Z,6.00
2022-11-29T03:17:18.589Z,4.40
2022-11-29T03:19:56.785Z,3.00
2022-11-29T03:22:33.049Z,6.00
2022-11-29T03:25:04.124Z,9.00
2022-11-29T03:27:37.673Z,8.60
2022-11-29T03:30:09.310Z,3.00
2022-11-29T03:32:42.215Z,9.00
2022-11-29T03:35:14.575Z,8.60
2022-11-29T03:37:48.900Z,7.80
2022-11-29T03:40:19.606Z,8.20
2022-11-29T03:42:52.050Z,4.00
2022-11-29T03:45:23.952Z,10.00
2022-11-29T03:47:56.003Z,7.00
2022-11-29T03:50:26.406Z,7.00
2022-11-29T03:52:57.729Z,7.00
2022-11-29T03:55:48.260Z,8.80
2022-11-29T03:58:26.084Z,7.40
2022-11-29T04:01:07.805Z,4.80
2022-11-29T04:04:03.023Z,8.20
2022-11-29T04:06:40.051Z,11.20
2022-11-29T04:09:25.422Z,6.20
2022-11-29T04:12:14.454Z,10.00
2022-11-29T04:14:57.714Z,9.00
2022-11-29T04:17:42.750Z,6.60
2022-11-29T04:20:45.312Z,6.00
2022-11-29T04:23:42.976Z,2.80
2022-11-29T04:26:35.491Z,7.00
2022-11-29T04:29:14.110Z,9.80
2022-11-29T04:31:52.546Z,9.20
2022-11-29T04:34:45.661Z,12.60
2022-11-29T04:37:28.217Z,11.20
2022-11-29T04:40:00.261Z,12.00
2022-11-29T04:42:39.726Z,12.40
2022-11-29T04:45:25.786Z,9.60
2022-11-29T04:48:00.582Z,9.00
2022-11-29T04:50:34.593Z,12.00
2022-11-29T04:53:11.739Z,10.40
2022-11-29T04:55:45.173Z,12.00
2022-11-29T04:58:20.749Z,10.00
2022-11-29T05:00:55.825Z,9.60
2022-11-29T05:03:32.653Z,7.40
2022-11-29T05:06:04.512Z,10.40
2022-11-29T05:08:39.933Z,6.80
2022-11-29T05:11:13.250Z,6.60
2022-11-29T05:13:46.912Z,9.20
2022-11-29T05:16:22.020Z,9.00
2022-11-29T05:19:04.766Z,8.60
2022-11-29T05:21:41.535Z,6.00
2022-11-29T05:24:15.911Z,6.60
2022-11-29T05:26:47.701Z,10.00
2022-11-29T05:29:21.302Z,9.20
2022-11-29T05:31:57.040Z,7.80
2022-11-29T05:34:39.299Z,3.20
2022-11-29T05:37:11.835Z,6.00
2022-11-29T05:39:46.255Z,6.40
2022-11-29T05:42:25.904Z,10.00
2022-11-29T05:44:59.335Z,9.00
2022-11-29T05:47:31.766Z,9.40
2022-11-29T05:50:05.274Z,8.80
2022-11-29T05:52:38.063Z,10.40
2022-11-29T05:55:19.979Z,6.00
2022-11-29T05:57:54.329Z,9.20
2022-11-29T06:00:24.622Z,3.00
2022-11-29T06:02:57.378Z,9.20
2022-11-29T06:05:30.709Z,10.00
2022-11-29T06:08:04.174Z,10.00
2022-11-29T06:10:35.065Z,9.00
2022-11-29T06:13:11.855Z,10.80
2022-11-29T06:16:10.122Z,10.00
2022-11-29T06:18:56.745Z,12.00
2022-11-29T06:21:36.788Z,9.40
2022-11-29T06:24:25.683Z,9.80
2022-11-29T06:27:07.150Z,9.40
2022-11-29T06:29:40.148Z,7.40
2022-11-29T06:32:26.912Z,6.00
2022-11-29T06:34:59.285Z,3.20
2022-11-29T06:37:32.669Z,6.00
2022-11-29T06:40:00.945Z,7.00
2022-11-29T06:42:29.193Z,6.80
2022-11-29T06:44:57.644Z,6.00
2022-11-29T06:47:29.284Z,7.00
2022-11-29T06:49:59.515Z,6.60
2022-11-29T06:52:37.789Z,9.20
2022-11-29T06:55:11.288Z,10.00
2022-11-29T06:57:46.006Z,10.40
2022-11-29T07:00:17.514Z,7.80
2022-11-29T07:02:51.135Z,5.80
2022-11-29T07:05:24.844Z,7.80
2022-11-29T07:07:56.253Z,9.00
2022-11-29T07:10:24.827Z,4.60
2022-11-29T07:12:53.371Z,9.00
2022-11-29T07:15:22.924Z,0.00
2022-11-29T07:17:59.724Z,8.20
2022-11-29T07:20:31.151Z,9.60
2022-11-29T07:23:04.489Z,7.00
2022-11-29T07:25:39.213Z,6.40
2022-11-29T07:28:14.304Z,11.40
2022-11-29T07:30:48.461Z,9.40
2022-11-29T07:33:20.339Z,5.20
2022-11-29T07:35:54.415Z,5.20
2022-11-29T07:38:27.980Z,7.40
2022-11-29T07:41:00.394Z,9.00
2022-11-29T07:43:35.770Z,11.20
2022-11-29T07:46:04.008Z,11.20
2022-11-29T07:48:32.129Z,7.80
2022-11-29T07:51:01.936Z,12.00
2022-11-29T07:53:31.636Z,10.00
2022-11-29T07:55:59.803Z,9.00
2022-11-29T07:58:27.871Z,11.20
2022-11-29T08:00:55.999Z,8.20
2022-11-29T08:03:24.127Z,10.60
2022-11-29T08:05:52.370Z,8.40
2022-11-29T08:08:20.491Z,9.60
2022-11-29T08:10:50.024Z,7.00
2022-11-29T08:13:20.288Z,7.20
2022-11-29T08:15:49.128Z,6.80
2022-11-29T08:18:17.587Z,7.00
2022-11-29T08:20:46.413Z,0.00
2022-11-29T08:23:14.724Z,9.00
2022-11-29T08:25:43.048Z,9.00
2022-11-29T08:28:12.621Z,4.00
2022-11-29T08:30:40.759Z,4.80
2022-11-29T08:33:08.819Z,10.00
2022-11-29T08:35:37.060Z,3.40
2022-11-29T08:38:05.202Z,10.40
2022-11-29T08:40:33.266Z,5.60
2022-11-29T08:43:01.355Z,10.40
2022-11-29T08:45:31.515Z,4.20
2022-11-29T08:47:59.654Z,7.40
2022-11-29T08:50:27.705Z,7.80
2022-11-29T08:53:13.110Z,10.60
2022-11-29T08:55:43.128Z,7.20
2022-11-29T08:58:12.131Z,6.20
2022-11-29T09:00:41.840Z,10.40
2022-11-29T09:03:27.597Z,6.40
2022-11-29T09:05:55.762Z,8.20
2022-11-29T09:08:23.848Z,3.00
2022-11-29T09:10:51.880Z,7.40
2022-11-29T09:13:19.996Z,3.20
2022-11-29T09:15:50.042Z,6.80
2022-11-29T09:18:18.286Z,10.80
2022-11-29T09:20:46.457Z,9.80
2022-11-29T09:23:14.535Z,9.00
2022-11-29T09:25:42.717Z,12.60
2022-11-29T09:28:12.674Z,7.40
2022-11-29T09:30:40.770Z,11.60
2022-11-29T09:33:10.260Z,9.60
2022-11-29T09:35:38.365Z,10.00
2022-11-29T09:38:06.635Z,6.40
2022-11-29T09:40:40.080Z,11.60
2022-11-29T09:43:15.491Z,12.00
2022-11-29T09:45:46.790Z,3.60
2022-11-29T09:48:37.629Z,7.80
2022-11-29T09:51:12.633Z,7.80
2022-11-29T09:53:47.841Z,5.60
2022-11-29T09:56:19.776Z,12.40
2022-11-29T09:58:49.894Z,8.20
2022-11-29T10:01:20.821Z,6.00
2022-11-29T10:03:53.131Z,4.00
2022-11-29T10:06:24.380Z,9.00
2022-11-29T10:08:55.242Z,3.60
2022-11-29T10:11:27.844Z,7.40
2022-11-29T10:13:58.414Z,9.20
2022-11-29T10:16:29.692Z,9.60
2022-11-29T10:19:03.323Z,13.80
2022-11-29T10:21:33.608Z,11.60
2022-11-29T10:24:04.210Z,7.00
2022-11-29T10:26:35.358Z,7.40
2022-11-29T10:29:03.937Z,12.00
2022-11-29T10:31:34.426Z,12.00
2022-11-29T10:34:09.257Z,9.00
2022-11-29T10:36:40.782Z,7.00
2022-11-29T10:39:15.101Z,9.40
2022-11-29T10:41:43.181Z,6.00
2022-11-29T10:44:14.592Z,10.00
2022-11-29T10:46:42.830Z,12.60
2022-11-29T10:49:15.818Z,10.00
2022-11-29T10:51:44.010Z,12.00
2022-11-29T10:54:26.980Z,8.20
2022-11-29T10:56:56.668Z,12.40
2022-11-29T10:59:25.911Z,10.40
2022-11-29T11:01:54.265Z,6.40
2022-11-29T11:04:32.045Z,12.40
2022-11-29T11:07:01.420Z,0.00
2022-11-29T11:09:32.199Z,15.00
2022-11-29T11:12:01.836Z,13.40
2022-11-29T11:14:31.767Z,10.00
2022-11-29T11:17:15.091Z,12.20
2022-11-29T11:19:55.035Z,7.00
2022-11-29T11:22:24.389Z,12.00
2022-11-29T11:24:58.300Z,10.00
2022-11-29T11:27:30.846Z,10.80
2022-11-29T11:29:59.271Z,9.60
2022-11-29T11:32:27.359Z,5.00
2022-11-29T11:34:57.878Z,9.00
2022-11-29T11:37:27.635Z,2.40
2022-11-29T11:39:57.321Z,7.60
2022-11-29T11:42:40.590Z,9.00
2022-11-29T11:45:28.346Z,10.00
2022-11-29T11:47:57.910Z,7.80
2022-11-29T11:50:32.026Z,10.00
2022-11-29T11:53:01.101Z,3.20
2022-11-29T11:55:31.923Z,3.60
2022-11-29T11:58:09.866Z,7.40
2022-11-29T12:01:02.890Z,13.80
2022-11-29T12:03:35.822Z,9.40
2022-11-29T12:06:21.925Z,7.20
2022-11-29T12:08:52.605Z,12.00
2022-11-29T12:11:21.985Z,14.20
2022-11-29T12:13:52.026Z,14.60
2022-11-29T12:16:27.555Z,9.80
2022-11-29T12:18:59.899Z,13.00
2022-11-29T12:21:31.171Z,12.20
2022-11-29T12:24:04.076Z,9.20
2022-11-29T12:29:22.797Z,10.80
2022-11-29T12:32:00.224Z,8.60
2022-11-29T12:34:43.465Z,11.20
2022-11-29T12:37:15.159Z,9.60
2022-11-29T12:39:49.858Z,11.60
2022-11-29T12:42:23.004Z,9.60
2022-11-29T12:44:55.585Z,10.80
2022-11-29T12:47:35.997Z,10.20
2022-11-29T12:50:23.014Z,9.60
2022-11-29T12:52:57.485Z,12.60
2022-11-29T12:55:30.186Z,12.00
2022-11-29T12:58:02.289Z,8.20
2022-11-29T13:00:34.182Z,12.60
2022-11-29T13:03:06.947Z,13.80
2022-11-29T13:05:42.580Z,14.60
2022-11-29T13:08:21.064Z,9.80
2022-11-29T13:10:56.781Z,2.60
2022-11-29T13:13:30.767Z,9.60
2022-11-29T13:16:04.266Z,10.00
2022-11-29T13:18:37.750Z,12.00
2022-11-29T13:21:09.320Z,8.20
2022-11-29T13:24:07.265Z,12.40
2022-11-29T13:26:31.405Z,2.20
2022-11-29T13:29:00.277Z,11.60
2022-11-29T13:31:29.040Z,6.20
2022-11-29T13:34:00.492Z,6.40
2022-11-29T13:36:33.488Z,14.60
2022-11-29T13:39:07.603Z,13.40
2022-11-29T13:41:41.011Z,10.80
2022-11-29T13:44:13.020Z,10.00
2022-11-29T13:46:47.209Z,8.20
2022-11-29T13:49:44.508Z,7.40
2022-11-29T13:52:27.375Z,9.80
2022-11-29T13:55:05.513Z,9.60
2022-11-29T13:58:18.802Z,12.60
2022-11-29T14:00:50.961Z,12.20
2022-11-29T14:03:28.570Z,4.40
2022-11-29T14:06:05.078Z,10.00
2022-11-29T14:09:02.472Z,9.00
2022-11-29T14:11:25.508Z,11.80
2022-11-29T14:13:55.897Z,9.80
2022-11-29T14:16:29.182Z,12.40
2022-11-29T14:19:19.526Z,12.40
2022-11-29T14:22:06.340Z,7.00
2022-11-29T14:24:42.803Z,11.20
2022-11-29T14:27:31.553Z,7.00
2022-11-29T14:29:59.871Z,10.00
2022-11-29T14:32:31.317Z,14.20
2022-11-29T14:35:01.699Z,15.00
2022-11-29T14:37:35.175Z,12.60
2022-11-29T14:40:13.670Z,9.80
2022-11-29T14:42:47.657Z,12.40
2022-11-29T14:45:23.328Z,17.40
2022-11-29T14:47:51.785Z,4.00
2022-11-29T14:50:29.889Z,9.80
2022-11-29T14:52:58.139Z,7.00
2022-11-29T14:55:35.571Z,7.40
2022-11-29T14:58:18.486Z,9.80
2022-11-29T15:01:10.646Z,9.00
2022-11-29T15:03:50.017Z,10.80
2022-11-29T15:06:24.706Z,7.80
2022-11-29T15:09:38.736Z,4.00
2022-11-29T15:13:05.526Z,26.80
2022-11-29T15:15:37.957Z,19.40
2022-11-29T15:18:13.956Z,16.40
2022-11-29T15:20:58.772Z,13.80
2022-11-29T15:23:27.202Z,13.00
2022-11-29T15:25:56.353Z,17.60
2022-11-29T15:28:27.367Z,16.80
2022-11-29T15:31:03.836Z,17.40
2022-11-29T15:33:32.669Z,18.20
2022-11-29T15:36:06.009Z,15.80
2022-11-29T15:38:42.818Z,13.20
2022-11-29T15:41:20.216Z,12.20
2022-11-29T15:43:52.535Z,7.00
2022-11-29T15:46:21.648Z,12.60
2022-11-29T15:48:50.157Z,7.00
2022-11-29T15:51:22.536Z,12.80
2022-11-29T15:54:00.397Z,12.80
2022-11-29T15:56:41.933Z,13.40
2022-11-29T15:59:17.895Z,11.40
2022-11-29T16:02:18.447Z,14.20
2022-11-29T16:04:48.379Z,13.00
2022-11-29T16:07:17.570Z,13.60
2022-11-29T16:09:47.583Z,8.60
2022-11-29T16:12:17.191Z,18.20
2022-11-29T16:14:55.921Z,20.60
2022-11-29T16:17:26.888Z,14.20
2022-11-29T16:20:05.748Z,15.40
2022-11-29T16:22:34.117Z,10.80
2022-11-29T16:25:05.453Z,13.40
2022-11-29T16:27:36.930Z,9.00
2022-11-29T16:30:07.499Z,13.80
2022-11-29T16:32:36.661Z,13.80
2022-11-29T16:35:09.654Z,15.80
2022-11-29T16:37:40.847Z,13.00
2022-11-29T16:40:21.371Z,15.60
2022-11-29T16:43:06.639Z,14.60
2022-11-29T16:45:37.265Z,15.80
2022-11-29T16:48:16.351Z,10.80
2022-11-29T16:50:46.256Z,14.60
2022-11-29T16:53:32.830Z,18.80
2022-11-29T16:56:01.027Z,15.40
2022-11-29T16:58:29.354Z,13.20
2022-11-29T17:00:59.060Z,13.00
2022-11-29T17:03:27.338Z,15.60
2022-11-29T17:05:55.572Z,18.80
2022-11-29T17:08:23.793Z,16.00
2022-11-29T17:10:51.911Z,23.60
2022-11-29T17:13:20.059Z,9.60
2022-11-29T17:15:48.234Z,18.40
2022-11-29T17:18:17.900Z,19.00
2022-11-29T17:20:46.103Z,19.80
2022-11-29T17:23:14.282Z,16.00
2022-11-29T17:25:42.498Z,15.80
2022-11-29T17:28:10.624Z,20.60
2022-11-29T17:30:38.850Z,17.00
2022-11-29T17:33:07.173Z,22.00
2022-11-29T17:35:37.741Z,16.80
2022-11-29T17:38:05.909Z,18.40
2022-11-29T17:40:34.263Z,13.60
2022-11-29T17:43:02.553Z,13.40
2022-11-29T17:45:30.824Z,18.00
2022-11-29T17:48:00.092Z,9.00
2022-11-29T17:50:28.628Z,17.00
2022-11-29T17:52:58.412Z,15.20
2022-11-29T17:55:29.489Z,14.60
2022-11-29T17:57:57.853Z,12.60
2022-11-29T18:00:25.977Z,17.20
2022-11-29T18:02:54.100Z,12.80
2022-11-29T18:05:22.165Z,20.20
2022-11-29T18:07:59.378Z,21.60
2022-11-29T18:10:29.349Z,9.40
2022-11-29T18:12:57.675Z,18.60
2022-11-29T18:15:25.991Z,18.80
2022-11-29T18:17:54.076Z,19.80
2022-11-29T18:20:22.355Z,17.60
2022-11-29T18:22:50.437Z,21.40
2022-11-29T18:25:38.329Z,18.20
2022-11-29T18:28:08.731Z,9.80
2022-11-29T18:30:36.877Z,14.60
2022-11-29T18:33:05.296Z,16.00
2022-11-29T18:35:33.474Z,18.40
2022-11-29T18:38:16.976Z,22.80
2022-11-29T18:40:45.884Z,21.60
2022-11-29T18:43:16.835Z,19.60
2022-11-29T18:45:45.066Z,26.80
2022-11-29T18:48:13.648Z,21.60
2022-11-29T18:50:41.784Z,21.40
2022-11-29T18:53:09.819Z,26.40
2022-11-29T18:55:38.011Z,26.80
2022-11-29T18:58:08.029Z,26.20
2022-11-29T19:00:37.642Z,24.40
2022-11-29T19:03:05.684Z,24.60
2022-11-29T19:05:34.077Z,15.20
2022-11-29T19:08:02.309Z,27.00
2022-11-29T19:10:30.604Z,25.00
2022-11-29T19:12:58.644Z,30.00
2022-11-29T19:15:26.795Z,29.60
2022-11-29T19:17:56.312Z,30.00
2022-11-29T19:20:24.327Z,27.00
2022-11-29T19:22:57.444Z,30.40
2022-11-29T19:25:28.371Z,25.60
2022-11-29T19:27:56.606Z,29.20
2022-11-29T19:30:24.676Z,15.80
2022-11-29T19:32:52.726Z,28.80
2022-11-29T19:35:22.253Z,27.00
2022-11-29T19:37:50.618Z,27.60
2022-11-29T19:40:18.973Z,3.60
2022-11-29T19:42:48.630Z,30.20
2022-11-29T19:45:17.980Z,28.40
2022-11-29T19:47:46.374Z,30.60
2022-11-29T19:50:14.504Z,26.60
2022-11-29T19:52:44.000Z,26.60
2022-11-29T19:55:12.517Z,24.00
2022-11-29T19:57:40.612Z,31.60
2022-11-29T20:00:09.472Z,14.40
2022-11-29T20:02:39.992Z,27.40
2022-11-29T20:05:09.555Z,28.80
2022-11-29T20:07:37.680Z,30.00
2022-11-29T20:10:08.338Z,30.00
2022-11-29T20:12:36.623Z,30.80
2022-11-29T20:15:05.266Z,30.20
2022-11-29T20:17:33.429Z,36.00
2022-11-29T20:20:01.545Z,30.00
2022-11-29T20:22:31.028Z,33.00
2022-11-29T20:24:59.237Z,33.00
2022-11-29T20:27:28.827Z,33.40
2022-11-29T20:29:56.916Z,30.20
2022-11-29T20:32:25.050Z,31.60
2022-11-29T20:34:53.955Z,33.40
2022-11-29T20:37:33.092Z,31.40
2022-11-29T20:40:04.638Z,33.00
2022-11-29T20:42:45.122Z,33.80
2022-11-29T20:45:14.395Z,28.40
2022-11-29T20:47:46.457Z,26.60
2022-11-29T20:50:16.888Z,26.40
2022-11-29T20:52:50.389Z,27.20
2022-11-29T20:55:18.862Z,29.00
2022-11-29T20:57:48.476Z,27.00
2022-11-29T21:00:16.930Z,29.20
2022-11-29T21:02:45.346Z,27.40
2022-11-29T21:05:13.415Z,21.80
2022-11-29T21:07:41.572Z,18.60
2022-11-29T21:10:10.232Z,26.20
2022-11-29T21:12:38.769Z,25.80
2022-11-29T21:15:10.094Z,26.00
2022-11-29T21:17:38.407Z,21.20
2022-11-29T21:20:07.223Z,22.00
2022-11-29T21:22:39.627Z,18.40
2022-11-29T21:25:14.163Z,17.80
2022-11-29T21:27:42.458Z,18.80
2022-11-29T21:30:17.583Z,22.40
2022-11-29T21:32:45.964Z,26.60
2022-11-29T21:35:14.148Z,21.00
2022-11-29T21:37:42.643Z,27.80
2022-11-29T21:40:11.691Z,22.40
2022-11-29T21:42:39.779Z,21.80
2022-11-29T21:45:14.905Z,19.00
2022-11-29T21:47:45.296Z,27.20
2022-11-29T21:50:13.783Z,24.80
2022-11-29T21:52:41.864Z,29.60
2022-11-29T21:55:10.412Z,18.60
2022-11-29T21:57:38.997Z,25.80
2022-11-29T22:00:08.151Z,24.20
2022-11-29T22:02:37.565Z,18.00
2022-11-29T22:05:08.488Z,25.00
2022-11-29T22:07:36.561Z,22.60
2022-11-29T22:10:11.606Z,23.60
2022-11-29T22:12:51.346Z,22.40
2022-11-29T22:15:24.533Z,21.20
2022-11-29T22:17:53.867Z,26.00
2022-11-29T22:20:23.528Z,22.00
2022-11-29T22:22:55.693Z,24.80
2022-11-29T22:25:25.191Z,17.60
2022-11-29T22:27:53.211Z,14.80
2022-11-29T22:30:21.328Z,21.00
2022-11-29T22:32:49.376Z,7.80
2022-11-29T22:35:17.555Z,24.80
2022-11-29T22:37:47.007Z,20.60
2022-11-29T22:40:16.000Z,18.40
2022-11-29T22:42:44.061Z,22.40
2022-11-29T22:45:12.515Z,18.40
2022-11-29T22:47:40.584Z,16.20
2022-11-29T22:50:09.191Z,21.20
2022-11-29T22:52:37.310Z,16.80
2022-11-29T22:55:07.386Z,14.20
2022-11-29T22:57:35.550Z,15.40
2022-11-29T23:00:03.739Z,21.40
2022-11-29T23:02:31.948Z,25.00
2022-11-29T23:05:00.066Z,17.60
2022-11-29T23:07:28.178Z,18.60
2022-11-29T23:09:56.357Z,18.20
2022-11-29T23:12:25.863Z,12.00
2022-11-29T23:14:56.487Z,12.20
2022-11-29T23:17:25.097Z,21.40
2022-11-29T23:19:53.145Z,19.40
2022-11-29T23:22:21.186Z,23.60
2022-11-29T23:24:49.266Z,15.00
2022-11-29T23:27:17.410Z,3.40
2022-11-29T23:29:46.954Z,25.80
2022-11-29T23:32:14.996Z,20.20
2022-11-29T23:34:43.075Z,17.20
2022-11-29T23:37:11.156Z,21.20
2022-11-29T23:39:39.179Z,24.60
2022-11-29T23:42:07.231Z,15.80
2022-11-29T23:44:35.297Z,21.20
2022-11-29T23:47:04.841Z,23.20
2022-11-29T23:49:35.450Z,18.00
2022-11-29T23:52:03.595Z,17.60
2022-11-29T23:54:31.630Z,15.00
2022-11-29T23:56:59.696Z,21.40
2022-11-29T23:59:27.733Z,22.00
